Terminal Aerodrome Forecast
Issued by NWS Bismarck, ND

Home | Current Version | Previous Version | Graphics & Text | Print | Product List | Glossary On
Versions: 1 2 3 4 5 6 7 8 9 10 11 12 13 14
000
FTUS43 KBIS 260528
TAFISN
TAF
KISN 260528Z 2606/2706 21004KT P6SM SCT080 OVC100
     FM261800 23010KT P6SM SCT050 BKN080
     FM262300 26012KT P6SM BKN090
     FM270400 29006KT P6SM SCT100=

USA.gov is the U.S. government's official web portal to all federal, state and local government web resources and services.